Time;durP1;ratioP1;P1;durP2;ratioP2;P2;SDS_P1;SDS_P2;PMS_P1;PMS_P2;Temp;Humidity;BMP_temperature;BMP_pressure;BME280_temperature;BME280_humidity;BME280_pressure;Samples;Min_cycle;Max_cycle;Signal;HPM_P1;HPM_P2
2023/11/21 00:01:44;;;;;;;96.13;30.80;;;;;;;;;;5035424;28;20190;-69
2023/11/21 00:04:10;;;;;;;79.65;28.20;;;;;;;;;;5037603;28;20193;-69
2023/11/21 00:06:35;;;;;;;98.35;31.35;;;;;;;;;;5044215;28;20178;-68
2023/11/21 00:09:00;;;;;;;87.93;31.35;;;;;;;;;;5034456;28;20182;-68
2023/11/21 00:11:26;;;;;;;100.65;30.55;;;;;;;;;;5038899;28;20554;-68
2023/11/21 00:13:51;;;;;;;103.50;30.75;;;;;;;;;;5035430;28;20193;-68
2023/11/21 00:16:17;;;;;;;88.55;29.67;;;;;;;;;;5017963;28;20242;-69
2023/11/21 00:18:42;;;;;;;99.68;30.38;;;;;;;;;;5024574;28;20688;-68
2023/11/21 00:21:09;;;;;;;88.20;30.58;;;;;;;;;;5015714;28;20244;-68
2023/11/21 00:23:35;;;;;;;88.20;30.48;;;;;;;;;;5016376;28;20516;-68
2023/11/21 00:26:00;;;;;;;93.73;29.77;;;;;;;;;;5020048;28;20266;-68
2023/11/21 00:28:26;;;;;;;97.95;30.77;;;;;;;;;;5019638;28;20269;-68
2023/11/21 00:30:52;;;;;;;81.20;28.75;;;;;;;;;;5025286;28;20182;-68
2023/11/21 00:33:17;;;;;;;76.95;29.27;;;;;;;;;;5022454;28;20894;-68
2023/11/21 00:35:42;;;;;;;91.13;30.27;;;;;;;;;;5025718;28;20272;-69
2023/11/21 00:38:11;;;;;;;91.63;29.98;;;;;;;;;;5020901;28;20179;-68
2023/11/21 00:40:37;;;;;;;86.53;31.13;;;;;;;;;;5009520;28;20198;-68
2023/11/21 00:43:03;;;;;;;73.72;26.17;;;;;;;;;;5008504;28;20269;-68
2023/11/21 00:45:28;;;;;;;82.82;30.27;;;;;;;;;;5023245;28;20293;-68
2023/11/21 00:47:54;;;;;;;101.80;31.33;;;;;;;;;;5038580;28;20593;-68
2023/11/21 00:50:19;;;;;;;85.65;29.63;;;;;;;;;;5031815;28;20190;-68
2023/11/21 00:52:45;;;;;;;90.10;30.42;;;;;;;;;;5027103;28;20221;-68
2023/11/21 00:55:11;;;;;;;92.20;31.20;;;;;;;;;;5011550;28;20265;-68
2023/11/21 00:57:37;;;;;;;89.00;31.35;;;;;;;;;;5021488;28;20439;-68
2023/11/21 01:00:07;;;;;;;89.05;31.83;;;;;;;;;;5017384;28;20266;-68
2023/11/21 01:02:32;;;;;;;93.55;31.50;;;;;;;;;;5019401;28;20269;-68
2023/11/21 01:04:58;;;;;;;90.30;30.50;;;;;;;;;;5015305;28;20325;-68
2023/11/21 01:07:24;;;;;;;91.95;30.85;;;;;;;;;;5010994;28;20195;-68
2023/11/21 01:09:49;;;;;;;92.57;31.92;;;;;;;;;;5012223;28;20276;-68
2023/11/21 01:12:15;;;;;;;89.88;31.63;;;;;;;;;;5010931;28;20245;-69
2023/11/21 01:14:40;;;;;;;83.32;30.55;;;;;;;;;;5012041;28;20649;-69
2023/11/21 01:17:06;;;;;;;85.90;32.13;;;;;;;;;;5011948;28;20230;-68
2023/11/21 01:19:31;;;;;;;96.55;31.90;;;;;;;;;;5028299;28;20276;-69
2023/11/21 01:21:58;;;;;;;93.20;31.45;;;;;;;;;;5026558;28;20186;-68
2023/11/21 01:24:23;;;;;;;94.60;32.72;;;;;;;;;;5012378;28;20487;-68
2023/11/21 01:26:48;;;;;;;95.28;32.00;;;;;;;;;;5021671;28;20513;-68
2023/11/21 01:29:14;;;;;;;91.75;32.40;;;;;;;;;;5029667;28;20201;-69
2023/11/21 01:31:40;;;;;;;95.28;32.17;;;;;;;;;;5019011;28;20191;-68
2023/11/21 01:34:06;;;;;;;86.25;32.70;;;;;;;;;;5025695;28;20201;-68
2023/11/21 01:36:33;;;;;;;89.72;33.03;;;;;;;;;;5011301;28;20237;-68
2023/11/21 01:39:01;;;;;;;94.25;33.28;;;;;;;;;;5023266;28;20185;-68
2023/11/21 01:41:28;;;;;;;87.28;33.10;;;;;;;;;;5015694;28;20256;-68
2023/11/21 01:43:55;;;;;;;86.80;32.00;;;;;;;;;;5023709;28;20632;-68
2023/11/21 01:46:22;;;;;;;89.13;32.78;;;;;;;;;;5038075;28;20177;-68
2023/11/21 01:48:48;;;;;;;92.10;33.35;;;;;;;;;;5049249;28;20259;-67
2023/11/21 01:51:15;;;;;;;95.05;33.10;;;;;;;;;;5033645;28;20244;-69
2023/11/21 01:53:40;;;;;;;91.03;32.67;;;;;;;;;;5023514;28;20282;-68
2023/11/21 01:56:08;;;;;;;91.88;33.20;;;;;;;;;;5039225;28;20297;-68
2023/11/21 01:58:34;;;;;;;93.53;34.15;;;;;;;;;;5040332;28;20284;-68
2023/11/21 02:00:59;;;;;;;91.57;33.88;;;;;;;;;;5023019;28;20697;-67
2023/11/21 02:03:26;;;;;;;97.30;34.13;;;;;;;;;;5029975;28;20265;-67
2023/11/21 02:05:53;;;;;;;98.20;32.88;;;;;;;;;;5021814;28;20228;-67
2023/11/21 02:08:19;;;;;;;84.10;32.00;;;;;;;;;;5043445;28;20189;-68
2023/11/21 02:10:45;;;;;;;97.78;34.28;;;;;;;;;;5026108;28;20226;-68
2023/11/21 02:13:10;;;;;;;77.68;30.48;;;;;;;;;;5018330;28;20291;-67
2023/11/21 02:15:38;;;;;;;92.00;30.58;;;;;;;;;;5027953;28;20268;-67
2023/11/21 02:18:05;;;;;;;93.97;33.47;;;;;;;;;;5020748;28;20703;-67
2023/11/21 02:20:34;;;;;;;95.20;33.15;;;;;;;;;;5018872;28;20191;-68
2023/11/21 02:23:00;;;;;;;92.63;32.95;;;;;;;;;;5014788;28;20678;-67
2023/11/21 02:25:29;;;;;;;101.15;34.45;;;;;;;;;;5011849;28;20229;-68
2023/11/21 02:27:59;;;;;;;93.30;32.38;;;;;;;;;;5019414;28;20218;-67
2023/11/21 02:30:25;;;;;;;88.00;31.40;;;;;;;;;;5015694;28;20193;-69
2023/11/21 02:32:54;;;;;;;111.28;35.10;;;;;;;;;;5017930;28;20198;-67
2023/11/21 02:35:25;;;;;;;89.85;32.55;;;;;;;;;;5020849;28;20279;-68
2023/11/21 02:37:51;;;;;;;93.23;31.87;;;;;;;;;;5022961;28;20199;-67
2023/11/21 02:40:17;;;;;;;91.63;33.05;;;;;;;;;;5014079;28;20191;-67
2023/11/21 02:42:44;;;;;;;108.75;33.92;;;;;;;;;;5016547;28;20200;-67
2023/11/21 02:45:12;;;;;;;100.10;33.05;;;;;;;;;;5023663;28;20209;-67
2023/11/21 02:47:38;;;;;;;97.90;32.78;;;;;;;;;;5023588;28;20739;-68
2023/11/21 02:50:04;;;;;;;89.22;31.48;;;;;;;;;;5023504;28;20191;-67
2023/11/21 02:52:29;;;;;;;101.90;34.58;;;;;;;;;;5031125;28;20281;-68
2023/11/21 02:54:54;;;;;;;95.15;30.67;;;;;;;;;;5042004;28;20668;-68
2023/11/21 02:57:20;;;;;;;92.25;34.55;;;;;;;;;;5032335;28;20195;-68
2023/11/21 02:59:45;;;;;;;97.25;30.05;;;;;;;;;;5030563;28;20189;-68
2023/11/21 03:02:11;;;;;;;93.40;31.65;;;;;;;;;;5037889;28;20276;-68
2023/11/21 03:04:36;;;;;;;110.05;34.40;;;;;;;;;;5029650;28;20612;-69
2023/11/21 03:07:01;;;;;;;94.97;33.22;;;;;;;;;;5029275;28;20222;-68
2023/11/21 03:09:27;;;;;;;99.78;33.97;;;;;;;;;;5034248;28;20200;-68
2023/11/21 03:11:55;;;;;;;100.53;34.08;;;;;;;;;;5023514;28;20573;-69
2023/11/21 03:14:21;;;;;;;80.22;32.13;;;;;;;;;;5042941;28;20212;-68
2023/11/21 03:16:47;;;;;;;97.07;31.80;;;;;;;;;;5032514;28;20689;-69
2023/11/21 03:19:14;;;;;;;91.28;32.00;;;;;;;;;;5014803;28;20641;-68
2023/11/21 03:21:40;;;;;;;91.38;33.05;;;;;;;;;;5039720;28;20264;-68
2023/11/21 03:24:07;;;;;;;120.75;36.40;;;;;;;;;;5028492;28;20202;-68
2023/11/21 03:26:32;;;;;;;95.05;32.78;;;;;;;;;;5020435;28;20189;-68
2023/11/21 03:28:57;;;;;;;109.25;35.05;;;;;;;;;;5024846;28;20195;-68
2023/11/21 03:31:23;;;;;;;102.60;34.92;;;;;;;;;;5009552;28;20195;-68
2023/11/21 03:33:48;;;;;;;95.65;31.88;;;;;;;;;;5017330;28;20187;-68
2023/11/21 03:36:18;;;;;;;89.85;34.05;;;;;;;;;;5008886;28;20341;-68
2023/11/21 03:38:43;;;;;;;98.95;34.45;;;;;;;;;;5012679;28;20206;-68
2023/11/21 03:41:11;;;;;;;110.95;35.55;;;;;;;;;;5015966;28;20708;-68
2023/11/21 03:43:37;;;;;;;131.85;36.22;;;;;;;;;;5017133;28;20642;-68
2023/11/21 03:46:03;;;;;;;145.60;35.85;;;;;;;;;;5016506;28;20272;-68
2023/11/21 03:48:28;;;;;;;127.22;35.67;;;;;;;;;;5024770;28;20619;-68
2023/11/21 03:50:54;;;;;;;126.00;35.97;;;;;;;;;;5022470;28;20194;-68
2023/11/21 03:53:19;;;;;;;97.47;35.30;;;;;;;;;;5009021;28;20183;-69
2023/11/21 03:55:45;;;;;;;101.05;35.08;;;;;;;;;;5016793;28;20210;-68
2023/11/21 03:58:10;;;;;;;100.03;37.08;;;;;;;;;;5011049;28;20194;-68
2023/11/21 04:00:35;;;;;;;108.35;36.15;;;;;;;;;;5030609;28;20189;-69
2023/11/21 04:03:01;;;;;;;113.43;36.90;;;;;;;;;;5037527;28;20189;-68
2023/11/21 04:05:26;;;;;;;123.28;37.08;;;;;;;;;;5045393;28;20644;-68
2023/11/21 04:07:52;;;;;;;94.88;32.75;;;;;;;;;;5046862;28;20272;-68
2023/11/21 04:10:18;;;;;;;128.10;39.55;;;;;;;;;;5036210;28;20234;-68
2023/11/21 04:12:43;;;;;;;135.88;38.38;;;;;;;;;;5041669;28;20320;-68
2023/11/21 04:15:09;;;;;;;124.65;38.13;;;;;;;;;;5028973;28;20519;-68
2023/11/21 04:17:36;;;;;;;97.82;34.53;;;;;;;;;;5028330;28;20190;-68
2023/11/21 04:20:02;;;;;;;92.35;32.97;;;;;;;;;;5027551;28;20189;-67
2023/11/21 04:22:27;;;;;;;89.10;33.05;;;;;;;;;;5010823;28;20178;-68
2023/11/21 04:24:55;;;;;;;80.35;31.90;;;;;;;;;;5037287;28;20645;-67
2023/11/21 04:27:21;;;;;;;101.13;35.67;;;;;;;;;;5032273;28;20232;-67
2023/11/21 04:29:46;;;;;;;97.88;35.10;;;;;;;;;;5008802;28;20187;-68
2023/11/21 04:32:12;;;;;;;114.60;36.45;;;;;;;;;;5010901;28;20579;-68
2023/11/21 04:34:38;;;;;;;83.68;32.58;;;;;;;;;;5029903;28;20661;-67
2023/11/21 04:37:06;;;;;;;120.40;37.85;;;;;;;;;;5042002;28;20260;-67
2023/11/21 04:39:31;;;;;;;116.15;37.83;;;;;;;;;;5038052;28;20190;-68
2023/11/21 04:41:56;;;;;;;113.72;38.50;;;;;;;;;;5034767;28;20186;-67
2023/11/21 04:44:22;;;;;;;106.22;37.00;;;;;;;;;;5030654;28;20551;-67
2023/11/21 04:46:47;;;;;;;113.35;35.63;;;;;;;;;;5043943;28;20209;-67
2023/11/21 04:49:14;;;;;;;118.07;34.42;;;;;;;;;;5025275;28;20187;-67
2023/11/21 04:51:39;;;;;;;122.25;34.90;;;;;;;;;;5029808;28;20190;-67
2023/11/21 04:54:05;;;;;;;125.00;36.70;;;;;;;;;;5030508;28;20200;-67
2023/11/21 04:56:31;;;;;;;120.78;35.92;;;;;;;;;;5030473;28;20210;-67
2023/11/21 04:58:56;;;;;;;122.90;36.35;;;;;;;;;;5020690;28;20273;-67
2023/11/21 05:01:22;;;;;;;123.85;35.72;;;;;;;;;;5030456;28;20213;-67
2023/11/21 05:03:48;;;;;;;122.72;36.60;;;;;;;;;;5015313;28;20198;-68
2023/11/21 05:06:14;;;;;;;135.48;37.22;;;;;;;;;;5033410;28;20273;-68
2023/11/21 05:08:39;;;;;;;101.57;33.75;;;;;;;;;;5027925;28;20555;-68
2023/11/21 05:11:07;;;;;;;112.68;35.22;;;;;;;;;;5026425;28;20707;-68
2023/11/21 05:13:34;;;;;;;114.70;35.05;;;;;;;;;;5032214;28;20199;-68
2023/11/21 05:15:59;;;;;;;114.25;35.42;;;;;;;;;;5043291;28;20248;-68
2023/11/21 05:18:29;;;;;;;137.13;36.72;;;;;;;;;;5023260;28;20696;-68
2023/11/21 05:20:55;;;;;;;129.65;36.08;;;;;;;;;;5047450;28;20182;-68
2023/11/21 05:23:20;;;;;;;119.20;35.97;;;;;;;;;;5044919;28;20178;-68
2023/11/21 05:25:46;;;;;;;107.80;33.03;;;;;;;;;;5038978;28;20263;-68
2023/11/21 05:28:12;;;;;;;120.18;34.15;;;;;;;;;;5036332;28;20241;-68
2023/11/21 05:30:38;;;;;;;120.43;35.53;;;;;;;;;;5025563;28;20205;-67
2023/11/21 05:33:04;;;;;;;114.45;34.22;;;;;;;;;;5020915;28;20553;-68
2023/11/21 05:35:29;;;;;;;122.38;33.95;;;;;;;;;;5020235;28;20221;-68
2023/11/21 05:37:55;;;;;;;104.75;35.58;;;;;;;;;;5013853;28;20208;-68
2023/11/21 05:40:21;;;;;;;89.97;32.15;;;;;;;;;;5024734;28;20190;-68
2023/11/21 05:42:47;;;;;;;111.93;36.38;;;;;;;;;;5015629;28;20206;-68
2023/11/21 05:45:13;;;;;;;86.75;34.05;;;;;;;;;;5017247;28;20685;-68
2023/11/21 05:47:43;;;;;;;111.82;37.00;;;;;;;;;;5023833;28;20191;-69
2023/11/21 05:50:12;;;;;;;107.20;35.80;;;;;;;;;;5020855;28;20194;-68
2023/11/21 05:52:39;;;;;;;137.52;36.60;;;;;;;;;;5029966;28;20194;-68
2023/11/21 05:55:07;;;;;;;118.25;35.20;;;;;;;;;;5030486;28;20202;-68
2023/11/21 05:57:36;;;;;;;132.50;39.40;;;;;;;;;;5027393;28;20582;-68
2023/11/21 06:00:03;;;;;;;133.93;39.28;;;;;;;;;;5020912;28;20657;-68
2023/11/21 06:02:28;;;;;;;130.82;39.33;;;;;;;;;;5026784;28;20183;-68
2023/11/21 06:04:54;;;;;;;115.80;38.38;;;;;;;;;;5020695;28;20205;-68
2023/11/21 06:07:19;;;;;;;131.57;41.05;;;;;;;;;;5015420;28;20229;-68
2023/11/21 06:09:44;;;;;;;120.53;39.00;;;;;;;;;;5013128;28;20563;-68
2023/11/21 06:12:10;;;;;;;127.85;40.58;;;;;;;;;;5025543;28;20230;-68
2023/11/21 06:14:36;;;;;;;128.82;39.35;;;;;;;;;;5030466;28;20214;-68
2023/11/21 06:17:02;;;;;;;130.55;39.58;;;;;;;;;;5027634;28;20196;-68
2023/11/21 06:19:27;;;;;;;117.97;38.58;;;;;;;;;;5023973;28;20210;-68
2023/11/21 06:21:52;;;;;;;111.43;38.72;;;;;;;;;;5021970;28;20257;-69
2023/11/21 06:24:18;;;;;;;120.18;39.03;;;;;;;;;;5026692;28;20201;-68
2023/11/21 06:26:44;;;;;;;123.90;39.45;;;;;;;;;;5025406;28;20260;-68
2023/11/21 06:29:09;;;;;;;137.45;38.90;;;;;;;;;;5037917;28;20561;-68
2023/11/21 06:31:34;;;;;;;89.75;34.67;;;;;;;;;;5017638;28;20570;-68
2023/11/21 06:34:00;;;;;;;107.57;37.63;;;;;;;;;;5032735;28;20548;-68
2023/11/21 06:36:26;;;;;;;127.43;37.42;;;;;;;;;;5021062;28;20301;-68
2023/11/21 06:38:52;;;;;;;104.90;36.67;;;;;;;;;;5031954;28;20229;-69
2023/11/21 06:41:17;;;;;;;106.80;37.15;;;;;;;;;;5024728;28;20221;-68
2023/11/21 06:43:46;;;;;;;112.90;37.40;;;;;;;;;;5032871;28;20202;-68
2023/11/21 06:46:14;;;;;;;102.55;37.13;;;;;;;;;;5029268;28;20185;-69
2023/11/21 06:48:42;;;;;;;113.63;39.20;;;;;;;;;;5034318;28;20265;-68
2023/11/21 06:51:07;;;;;;;112.75;38.00;;;;;;;;;;5030660;28;20533;-68
2023/11/21 06:53:32;;;;;;;114.55;37.70;;;;;;;;;;5031705;28;20197;-69
2023/11/21 06:55:58;;;;;;;121.50;38.83;;;;;;;;;;5033488;28;20315;-69
2023/11/21 06:58:23;;;;;;;116.55;40.20;;;;;;;;;;5036265;28;20190;-68
2023/11/21 07:00:50;;;;;;;103.55;37.67;;;;;;;;;;5033210;28;20595;-68
2023/11/21 07:03:15;;;;;;;117.72;39.65;;;;;;;;;;5029727;28;20656;-68
2023/11/21 07:05:40;;;;;;;105.32;37.10;;;;;;;;;;5031417;28;20186;-68
2023/11/21 07:08:07;;;;;;;106.15;36.67;;;;;;;;;;5019734;28;20239;-68
2023/11/21 07:10:33;;;;;;;114.30;36.55;;;;;;;;;;5024099;28;20363;-68
2023/11/21 07:12:58;;;;;;;93.68;36.35;;;;;;;;;;5022514;28;20310;-68
2023/11/21 07:15:25;;;;;;;90.70;35.20;;;;;;;;;;5022218;28;20716;-68
2023/11/21 07:17:51;;;;;;;106.50;36.50;;;;;;;;;;5030358;28;20213;-68
2023/11/21 07:20:17;;;;;;;100.88;34.30;;;;;;;;;;5038990;28;20231;-68
2023/11/21 07:22:42;;;;;;;107.05;34.53;;;;;;;;;;5035518;28;20227;-68
2023/11/21 07:25:09;;;;;;;104.50;34.65;;;;;;;;;;5029420;28;20202;-69
2023/11/21 07:27:35;;;;;;;99.35;32.97;;;;;;;;;;5020964;28;20178;-68
2023/11/21 07:30:04;;;;;;;91.15;33.67;;;;;;;;;;5014896;28;20299;-68
2023/11/21 07:32:30;;;;;;;101.88;34.83;;;;;;;;;;5031327;28;20186;-68
2023/11/21 07:34:58;;;;;;;102.50;34.67;;;;;;;;;;5029318;28;20437;-68
2023/11/21 07:37:23;;;;;;;108.63;35.50;;;;;;;;;;5026153;28;20538;-68
2023/11/21 07:39:49;;;;;;;115.97;35.35;;;;;;;;;;5024177;28;20272;-68
2023/11/21 07:42:14;;;;;;;124.43;36.58;;;;;;;;;;5021562;28;20198;-68
2023/11/21 07:44:39;;;;;;;107.47;34.22;;;;;;;;;;5024181;28;20720;-68
2023/11/21 07:47:05;;;;;;;94.80;35.20;;;;;;;;;;5030057;28;20297;-68
2023/11/21 07:49:30;;;;;;;101.43;34.97;;;;;;;;;;5040235;28;20470;-68
2023/11/21 07:51:56;;;;;;;100.95;34.17;;;;;;;;;;5021767;28;20182;-69
2023/11/21 07:54:21;;;;;;;120.95;36.53;;;;;;;;;;5034351;28;20190;-69
2023/11/21 07:56:47;;;;;;;107.95;34.97;;;;;;;;;;5028822;28;20189;-69
2023/11/21 07:59:14;;;;;;;98.20;36.83;;;;;;;;;;5010728;28;20618;-69
2023/11/21 08:01:40;;;;;;;99.13;35.70;;;;;;;;;;5033303;28;20665;-70
2023/11/21 08:04:06;;;;;;;127.93;36.95;;;;;;;;;;5033198;28;20292;-69
2023/11/21 08:06:32;;;;;;;118.03;37.20;;;;;;;;;;5030115;28;20563;-69
2023/11/21 08:08:58;;;;;;;126.70;39.78;;;;;;;;;;5034242;28;20195;-69
2023/11/21 08:11:24;;;;;;;127.88;38.22;;;;;;;;;;5039570;28;20236;-69
2023/11/21 08:13:49;;;;;;;113.53;36.75;;;;;;;;;;5023876;28;20194;-69
2023/11/21 08:16:15;;;;;;;123.32;38.42;;;;;;;;;;5032263;28;20548;-69
2023/11/21 08:18:41;;;;;;;124.10;36.70;;;;;;;;;;5030860;28;20217;-69
2023/11/21 08:21:07;;;;;;;129.77;39.20;;;;;;;;;;5043512;28;20205;-69
2023/11/21 08:23:34;;;;;;;130.20;38.88;;;;;;;;;;5039253;28;20193;-69
2023/11/21 08:25:59;;;;;;;120.28;39.20;;;;;;;;;;5030570;28;20210;-69
2023/11/21 08:28:25;;;;;;;120.85;38.55;;;;;;;;;;5026938;28;20217;-69
2023/11/21 08:30:52;;;;;;;130.98;39.83;;;;;;;;;;5036886;28;20272;-69
2023/11/21 08:33:18;;;;;;;114.60;36.60;;;;;;;;;;5021769;28;20188;-69
2023/11/21 08:35:45;;;;;;;126.03;39.95;;;;;;;;;;5028297;28;20210;-69
2023/11/21 08:38:12;;;;;;;120.35;37.67;;;;;;;;;;5014571;28;20189;-69
2023/11/21 08:40:38;;;;;;;123.65;39.03;;;;;;;;;;5021501;28;20202;-69
2023/11/21 08:43:04;;;;;;;115.80;38.40;;;;;;;;;;5022252;28;20190;-69
2023/11/21 08:45:30;;;;;;;129.18;38.00;;;;;;;;;;5023334;28;20212;-69
2023/11/21 08:47:55;;;;;;;144.43;40.38;;;;;;;;;;5034044;28;20268;-69
2023/11/21 08:50:21;;;;;;;112.60;38.40;;;;;;;;;;5033425;28;20661;-69
2023/11/21 08:52:47;;;;;;;112.38;37.70;;;;;;;;;;5045143;28;20196;-69
2023/11/21 08:55:13;;;;;;;116.28;37.17;;;;;;;;;;5019549;28;20218;-69
2023/11/21 08:57:40;;;;;;;116.93;36.10;;;;;;;;;;5032240;28;20182;-69
2023/11/21 09:00:16;;;;;;;107.38;35.42;;;;;;;;;;5037978;28;20292;-70
2023/11/21 09:02:43;;;;;;;112.47;36.97;;;;;;;;;;5038628;28;20190;-70
2023/11/21 09:05:10;;;;;;;103.40;37.00;;;;;;;;;;5041016;28;20189;-70
2023/11/21 09:07:36;;;;;;;74.97;32.50;;;;;;;;;;5029461;28;20248;-70
2023/11/21 09:10:03;;;;;;;99.97;35.35;;;;;;;;;;5029407;28;20186;-70
2023/11/21 09:12:29;;;;;;;99.25;34.38;;;;;;;;;;5028284;28;20280;-70
2023/11/21 09:14:54;;;;;;;81.30;31.30;;;;;;;;;;5029429;28;20306;-70
2023/11/21 09:17:20;;;;;;;77.35;31.33;;;;;;;;;;5042657;28;22077;-71
2023/11/21 09:19:49;;;;;;;72.55;28.85;;;;;;;;;;5027470;28;20189;-71
2023/11/21 09:22:15;;;;;;;65.50;27.38;;;;;;;;;;5027754;28;20186;-71
2023/11/21 09:24:40;;;;;;;77.35;30.08;;;;;;;;;;5037734;28;20204;-71
2023/11/21 09:27:06;;;;;;;76.88;29.65;;;;;;;;;;5022373;28;20256;-72
2023/11/21 09:29:34;;;;;;;75.10;29.13;;;;;;;;;;5030444;28;20551;-72
2023/11/21 09:32:01;;;;;;;74.68;29.17;;;;;;;;;;5027778;28;20567;-72
2023/11/21 09:34:26;;;;;;;64.30;27.23;;;;;;;;;;5040989;28;20193;-71
2023/11/21 09:36:52;;;;;;;66.97;27.73;;;;;;;;;;5020104;28;20190;-71
2023/11/21 09:39:20;;;;;;;65.60;27.65;;;;;;;;;;5031768;28;20277;-71
2023/11/21 09:41:56;;;;;;;62.97;26.95;;;;;;;;;;5040625;28;20186;-71
2023/11/21 09:44:42;;;;;;;64.03;28.35;;;;;;;;;;5043689;28;20224;-71
2023/11/21 09:47:10;;;;;;;61.28;27.08;;;;;;;;;;5024828;28;20197;-71
2023/11/21 09:49:38;;;;;;;59.83;26.85;;;;;;;;;;5043118;28;20193;-71
2023/11/21 09:52:05;;;;;;;53.90;24.33;;;;;;;;;;5031031;28;20277;-71
2023/11/21 09:54:32;;;;;;;52.33;25.85;;;;;;;;;;5040318;28;20190;-70
2023/11/21 09:57:00;;;;;;;54.33;25.60;;;;;;;;;;5028205;28;20182;-71
2023/11/21 09:59:30;;;;;;;54.70;25.33;;;;;;;;;;5036646;28;20190;-70
2023/11/21 10:01:58;;;;;;;50.00;24.15;;;;;;;;;;5044156;28;20189;-71
2023/11/21 10:04:23;;;;;;;46.88;24.13;;;;;;;;;;5041539;28;20197;-70
2023/11/21 10:06:50;;;;;;;54.88;24.45;;;;;;;;;;5030702;28;20646;-70
2023/11/21 10:09:16;;;;;;;47.40;23.35;;;;;;;;;;5030342;28;20190;-70
2023/11/21 10:11:43;;;;;;;57.38;25.33;;;;;;;;;;5022405;28;20256;-70
2023/11/21 10:14:12;;;;;;;56.05;24.95;;;;;;;;;;5015894;28;20189;-70
2023/11/21 10:16:39;;;;;;;60.83;25.05;;;;;;;;;;5029901;28;20638;-70
2023/11/21 10:19:06;;;;;;;58.42;24.52;;;;;;;;;;5014560;28;20233;-70
2023/11/21 10:21:33;;;;;;;56.13;23.73;;;;;;;;;;5021195;28;20191;-70
2023/11/21 10:23:58;;;;;;;52.17;22.85;;;;;;;;;;5028792;28;20256;-70
2023/11/21 10:26:26;;;;;;;55.00;23.38;;;;;;;;;;5035638;28;20565;-70
2023/11/21 10:29:05;;;;;;;50.40;23.27;;;;;;;;;;5026701;28;20668;-70
2023/11/21 10:31:31;;;;;;;51.50;23.02;;;;;;;;;;5028834;28;20307;-70
2023/11/21 10:34:16;;;;;;;54.67;24.08;;;;;;;;;;5050382;28;20236;-70
2023/11/21 10:36:42;;;;;;;52.58;22.70;;;;;;;;;;5035380;28;20249;-70
2023/11/21 10:39:09;;;;;;;52.33;25.23;;;;;;;;;;5023849;28;20549;-70
2023/11/21 10:41:35;;;;;;;51.65;24.13;;;;;;;;;;5022439;28;20613;-70
2023/11/21 10:44:04;;;;;;;51.85;22.85;;;;;;;;;;5029038;28;20221;-69
2023/11/21 10:46:30;;;;;;;57.28;25.75;;;;;;;;;;5042447;28;20204;-69
2023/11/21 10:48:56;;;;;;;54.30;24.35;;;;;;;;;;5025458;28;20182;-70
2023/11/21 10:51:21;;;;;;;49.08;23.98;;;;;;;;;;5028213;28;20598;-69
2023/11/21 10:53:48;;;;;;;52.17;24.55;;;;;;;;;;5029089;28;20616;-69
2023/11/21 10:56:19;;;;;;;53.65;23.85;;;;;;;;;;5035903;28;20233;-69
2023/11/21 10:58:45;;;;;;;49.47;23.63;;;;;;;;;;5025668;28;20185;-69
2023/11/21 11:01:14;;;;;;;49.25;24.27;;;;;;;;;;5020954;28;20630;-69
2023/11/21 11:03:41;;;;;;;47.83;22.20;;;;;;;;;;5026715;28;20201;-68
2023/11/21 11:06:11;;;;;;;45.63;20.40;;;;;;;;;;5029575;28;20205;-68
2023/11/21 11:08:37;;;;;;;42.35;19.45;;;;;;;;;;5025386;28;20187;-69
2023/11/21 11:11:04;;;;;;;42.45;19.42;;;;;;;;;;5034337;28;20233;-69
2023/11/21 11:13:30;;;;;;;39.75;18.27;;;;;;;;;;5029061;28;20652;-68
2023/11/21 11:16:01;;;;;;;38.47;19.02;;;;;;;;;;5029787;28;20294;-69
2023/11/21 11:18:30;;;;;;;37.40;17.63;;;;;;;;;;5032828;28;20237;-69
2023/11/21 11:21:14;;;;;;;42.17;18.08;;;;;;;;;;5036646;28;20296;-69
2023/11/21 11:24:13;;;;;;;36.40;17.80;;;;;;;;;;5021460;28;21172;-69
2023/11/21 11:27:21;;;;;;;38.17;17.75;;;;;;;;;;5025260;28;20194;-69
2023/11/21 11:30:15;;;;;;;42.90;18.05;;;;;;;;;;5015479;28;20217;-69
2023/11/21 11:33:07;;;;;;;41.83;17.98;;;;;;;;;;5005782;28;20197;-69
2023/11/21 11:35:51;;;;;;;42.95;18.73;;;;;;;;;;5008236;28;20224;-69
2023/11/21 11:38:17;;;;;;;37.03;16.73;;;;;;;;;;5026838;28;20269;-69
2023/11/21 11:40:47;;;;;;;38.50;17.08;;;;;;;;;;5028425;28;20286;-69
2023/11/21 11:43:12;;;;;;;39.42;17.45;;;;;;;;;;5046335;28;20185;-68
2023/11/21 11:45:41;;;;;;;36.67;16.63;;;;;;;;;;5023317;28;20190;-68
2023/11/21 11:48:07;;;;;;;38.83;17.33;;;;;;;;;;5030424;28;20270;-68
2023/11/21 11:50:33;;;;;;;40.50;18.77;;;;;;;;;;5024754;28;20764;-69
2023/11/21 11:53:15;;;;;;;42.38;18.80;;;;;;;;;;5027076;28;20248;-69
2023/11/21 11:55:40;;;;;;;43.35;18.98;;;;;;;;;;5025726;28;20233;-69
2023/11/21 11:58:07;;;;;;;36.35;18.13;;;;;;;;;;5034740;28;20648;-68
2023/11/21 12:00:33;;;;;;;42.70;18.95;;;;;;;;;;5033279;28;20228;-68
2023/11/21 12:03:05;;;;;;;41.03;18.33;;;;;;;;;;5036832;28;20213;-68
2023/11/21 12:05:45;;;;;;;41.30;17.15;;;;;;;;;;5031549;28;20182;-69
2023/11/21 12:08:11;;;;;;;42.80;17.48;;;;;;;;;;5033564;28;20190;-69
2023/11/21 12:10:38;;;;;;;34.83;17.30;;;;;;;;;;5039221;28;20229;-69
2023/11/21 12:13:08;;;;;;;27.65;15.13;;;;;;;;;;5035521;28;20201;-69
2023/11/21 12:15:35;;;;;;;32.75;15.88;;;;;;;;;;5038912;28;20205;-69
2023/11/21 12:18:00;;;;;;;31.73;15.65;;;;;;;;;;5034272;28;20227;-68
2023/11/21 12:20:27;;;;;;;33.05;16.13;;;;;;;;;;5035087;28;20273;-68
2023/11/21 12:23:01;;;;;;;30.05;15.13;;;;;;;;;;5027099;28;20251;-68
2023/11/21 12:25:34;;;;;;;28.35;14.65;;;;;;;;;;5021337;28;20186;-68
2023/11/21 12:28:00;;;;;;;28.98;15.05;;;;;;;;;;5018438;28;20243;-68
2023/11/21 12:30:30;;;;;;;30.42;15.88;;;;;;;;;;5036530;28;20186;-68
2023/11/21 12:32:57;;;;;;;30.60;14.88;;;;;;;;;;5033541;28;20186;-69
2023/11/21 12:35:25;;;;;;;26.33;14.85;;;;;;;;;;5023911;28;20210;-68
2023/11/21 12:37:52;;;;;;;28.08;14.82;;;;;;;;;;5017048;28;20224;-69
2023/11/21 12:40:18;;;;;;;27.73;16.27;;;;;;;;;;5027178;28;20178;-68
2023/11/21 12:42:48;;;;;;;29.98;15.98;;;;;;;;;;5033363;28;20209;-68
2023/11/21 12:45:17;;;;;;;29.63;15.52;;;;;;;;;;5015873;28;20245;-68
2023/11/21 12:47:43;;;;;;;27.70;15.77;;;;;;;;;;5014672;28;20198;-68
2023/11/21 12:50:15;;;;;;;24.08;14.63;;;;;;;;;;5025030;28;20722;-69
2023/11/21 12:52:49;;;;;;;25.95;14.52;;;;;;;;;;5021476;28;20222;-69
2023/11/21 12:55:19;;;;;;;24.92;15.27;;;;;;;;;;5030880;28;20237;-68
2023/11/21 12:57:45;;;;;;;21.17;14.90;;;;;;;;;;5033906;28;20186;-68
2023/11/21 13:00:24;;;;;;;21.40;14.95;;;;;;;;;;5031178;28;20178;-67
2023/11/21 13:02:51;;;;;;;19.77;14.55;;;;;;;;;;5036250;28;20221;-68
2023/11/21 13:05:27;;;;;;;21.92;14.73;;;;;;;;;;5024224;28;20603;-69
2023/11/21 13:07:54;;;;;;;21.05;15.15;;;;;;;;;;5043697;28;20205;-69
2023/11/21 13:10:27;;;;;;;20.85;14.35;;;;;;;;;;5026798;28;20259;-69
2023/11/21 13:12:53;;;;;;;19.40;14.57;;;;;;;;;;5029809;28;20546;-69
2023/11/21 13:15:19;;;;;;;17.35;13.45;;;;;;;;;;5024503;28;20202;-68
2023/11/21 13:17:45;;;;;;;18.02;12.82;;;;;;;;;;5034341;28;20228;-69
2023/11/21 13:20:15;;;;;;;18.65;13.00;;;;;;;;;;5032965;28;20182;-69
2023/11/21 13:22:54;;;;;;;16.85;13.15;;;;;;;;;;5025687;28;20659;-69
2023/11/21 13:25:21;;;;;;;15.70;12.85;;;;;;;;;;5030600;28;20183;-69
2023/11/21 13:27:46;;;;;;;14.70;11.73;;;;;;;;;;5037234;28;20185;-69
2023/11/21 13:30:17;;;;;;;16.58;12.57;;;;;;;;;;5045980;28;20193;-69
2023/11/21 13:32:44;;;;;;;16.90;12.32;;;;;;;;;;5010413;28;20201;-69
2023/11/21 13:35:15;;;;;;;14.90;11.60;;;;;;;;;;5010203;28;20249;-68
2023/11/21 13:37:42;;;;;;;15.30;12.52;;;;;;;;;;5022580;28;20202;-68
2023/11/21 13:40:14;;;;;;;17.25;12.50;;;;;;;;;;5024274;28;20197;-68
2023/11/21 13:42:41;;;;;;;15.85;11.63;;;;;;;;;;5025896;28;20193;-68
2023/11/21 13:45:06;;;;;;;14.88;10.52;;;;;;;;;;5025179;28;20637;-69
2023/11/21 13:47:33;;;;;;;14.20;10.30;;;;;;;;;;5011505;28;20197;-68
2023/11/21 13:50:00;;;;;;;13.23;9.32;;;;;;;;;;5040763;28;20559;-68
2023/11/21 13:52:27;;;;;;;12.57;9.57;;;;;;;;;;5022233;28;20186;-68
2023/11/21 13:54:53;;;;;;;16.80;8.65;;;;;;;;;;5030192;28;20206;-68
2023/11/21 13:57:20;;;;;;;11.55;8.75;;;;;;;;;;5048032;28;20648;-68
2023/11/21 13:59:45;;;;;;;11.98;8.57;;;;;;;;;;5028378;28;20198;-68
2023/11/21 14:02:18;;;;;;;12.93;9.15;;;;;;;;;;5027245;28;20236;-67
2023/11/21 14:07:27;;;;;;;11.27;8.52;;;;;;;;;;5028418;28;20190;-68
2023/11/21 14:09:52;;;;;;;12.57;8.60;;;;;;;;;;5037611;28;20248;-67
2023/11/21 14:12:18;;;;;;;13.48;8.95;;;;;;;;;;5022381;28;20233;-68
2023/11/21 14:14:45;;;;;;;12.38;9.05;;;;;;;;;;5015050;28;20261;-68
2023/11/21 14:17:10;;;;;;;11.95;8.65;;;;;;;;;;5031139;28;20194;-68